Time,TemperatureF,DewpointF,PressureIn,WindDirection,WindDirectionDegrees,WindSpeedMPH,WindSpeedGustMPH,Humidity,HourlyPrecipIn,Conditions,Clouds,dailyrainin,SoftwareType,DateUTC
2013-01-23 00:00:00,41.8,4.7,30.09,ENE,68,2.2,2.9,21,0.00,,,0.00,WSDL version 420,2013-01-23 07:00:00,
2013-01-23 00:05:00,41.4,4.4,30.09,ENE,68,3.7,4.3,21,0.00,,,0.00,WSDL version 420,2013-01-23 07:05:00,
2013-01-23 00:10:00,41.3,4.3,30.09,ENE,68,3.1,6.0,21,0.00,,,0.00,WSDL version 420,2013-01-23 07:10:00,
2013-01-23 00:15:00,41.5,4.4,30.09,NE,53,4.3,6.0,21,0.00,,,0.00,WSDL version 420,2013-01-23 07:15:00,
2013-01-23 00:20:00,41.6,4.6,30.09,ENE,62,6.1,6.5,21,0.00,,,0.00,WSDL version 420,2013-01-23 07:20:00,
2013-01-23 00:25:00,41.7,4.6,30.09,ENE,68,3.3,6.5,21,0.00,,,0.00,WSDL version 420,2013-01-23 07:25:00,
2013-01-23 00:30:00,41.2,4.2,30.09,North,360,1.2,4.9,21,0.00,,,0.00,WSDL version 420,2013-01-23 07:30:00,
2013-01-23 00:35:00,40.5,3.6,30.09,North,360,2.2,3.1,21,0.00,,,0.00,WSDL version 420,2013-01-23 07:35:00,
2013-01-23 00:40:00,40.6,3.7,30.09,ENE,68,4.1,4.9,21,0.00,,,0.00,WSDL version 420,2013-01-23 07:40:00,
2013-01-23 00:45:00,40.7,3.8,30.09,NNE,23,1.6,4.9,21,0.00,,,0.00,WSDL version 420,2013-01-23 07:45:00,
2013-01-23 00:50:00,41.0,4.0,30.09,ENE,68,2.8,3.8,21,0.00,,,0.00,WSDL version 420,2013-01-23 07:50:00,
2013-01-23 00:55:00,41.2,4.2,30.09,ENE,68,3.5,4.0,21,0.00,,,0.00,WSDL version 420,2013-01-23 07:55:00,
2013-01-23 01:00:00,41.6,4.5,30.09,ENE,63,3.1,4.7,21,0.00,,,0.00,WSDL version 420,2013-01-23 08:00:00,
2013-01-23 01:05:00,41.6,4.5,30.09,East,90,2.3,4.7,21,0.00,,,0.00,WSDL version 420,2013-01-23 08:05:00,
2013-01-23 01:10:00,40.6,3.7,30.09,East,90,1.1,3.1,21,0.00,,,0.00,WSDL version 420,2013-01-23 08:10:00,
2013-01-23 01:15:00,40.0,3.2,30.09,East,90,0.0,3.1,21,0.00,,,0.00,WSDL version 420,2013-01-23 08:15:00,
2013-01-23 01:20:00,39.8,3.1,30.09,East,90,1.6,2.0,21,0.00,,,0.00,WSDL version 420,2013-01-23 08:20:00,
2013-01-23 01:25:00,39.7,3.0,30.09,NE,45,2.5,3.1,21,0.00,,,0.00,WSDL version 420,2013-01-23 08:25:00,
2013-01-23 01:30:00,39.7,2.9,30.09,ENE,68,3.2,4.3,21,0.00,,,0.00,WSDL version 420,2013-01-23 08:30:00,
2013-01-23 01:35:00,39.7,3.0,30.09,NNE,23,1.7,4.3,21,0.00,,,0.00,WSDL version 420,2013-01-23 08:35:00,
2013-01-23 01:40:00,39.7,3.0,30.09,NNE,23,1.2,2.9,21,0.00,,,0.00,WSDL version 420,2013-01-23 08:40:00,
2013-01-23 01:52:00,39.5,2.8,30.09,North,0,0.0,2.9,21,0.00,,,0.00,WSDL version 420,2013-01-23 08:52:00,
2013-01-23 01:57:00,40.1,3.3,30.09,ENE,60,3.7,4.3,21,0.00,,,0.00,WSDL version 420,2013-01-23 08:57:00,
2013-01-23 02:04:00,40.9,4.0,30.09,NE,45,3.8,4.3,21,0.00,,,0.00,WSDL version 420,2013-01-23 09:04:00,
2013-01-23 02:09:00,41.5,4.5,30.09,ENE,68,2.5,4.0,21,0.00,,,0.00,WSDL version 420,2013-01-23 09:09:00,
2013-01-23 02:14:00,41.7,4.6,30.09,ENE,68,3.2,4.0,21,0.00,,,0.00,WSDL version 420,2013-01-23 09:14:00,
2013-01-23 02:24:00,41.1,4.1,30.09,North,-999,-999.0,-999.0,21,0.00,,,0.00,WSDL version 420,2013-01-23 09:24:00,
2013-01-23 02:29:00,40.9,4.0,30.09,SE,146,2.8,3.8,21,0.00,,,0.00,WSDL version 420,2013-01-23 09:29:00,
2013-01-23 02:34:00,40.4,3.6,30.09,SE,135,0.0,3.8,21,0.00,,,0.00,WSDL version 420,2013-01-23 09:34:00,
2013-01-23 02:39:00,40.1,3.2,30.09,North,-999,-999.0,-999.0,21,0.00,,,0.00,WSDL version 420,2013-01-23 09:39:00,
2013-01-23 02:44:00,39.9,3.1,30.09,SE,135,0.9,1.3,21,0.00,,,0.00,WSDL version 420,2013-01-23 09:44:00,
2013-01-23 02:54:00,39.6,2.9,30.09,East,79,1.1,2.9,21,0.00,,,0.00,WSDL version 420,2013-01-23 09:54:00,
2013-01-23 02:59:00,39.3,2.6,30.09,NNE,23,1.3,2.9,21,0.00,,,0.00,WSDL version 420,2013-01-23 09:59:00,
2013-01-23 03:04:00,39.4,2.6,30.09,ENE,68,2.9,3.1,21,0.00,,,0.00,WSDL version 420,2013-01-23 10:04:00,
2013-01-23 03:09:00,39.7,2.9,30.09,North,360,2.3,3.6,21,0.00,,,0.00,WSDL version 420,2013-01-23 10:09:00,
2013-01-23 03:14:00,40.1,3.3,30.09,South,180,1.3,3.6,21,0.00,,,0.00,WSDL version 420,2013-01-23 10:14:00,
2013-01-23 03:19:00,39.5,2.8,30.09,SE,135,2.0,2.9,21,0.00,,,0.00,WSDL version 420,2013-01-23 10:19:00,
2013-01-23 03:24:00,39.1,2.4,30.09,SE,135,1.7,2.9,21,0.00,,,0.00,WSDL version 420,2013-01-23 10:24:00,
2013-01-23 03:29:00,38.6,2.0,30.09,SE,135,0.0,2.9,21,0.00,,,0.00,WSDL version 420,2013-01-23 10:29:00,
2013-01-23 03:34:00,38.1,1.6,30.09,SE,135,1.3,2.5,21,0.00,,,0.00,WSDL version 420,2013-01-23 10:34:00,
2013-01-23 03:39:00,37.9,1.4,30.09,SE,135,0.9,2.5,21,0.00,,,0.00,WSDL version 420,2013-01-23 10:39:00,
2013-01-23 03:44:00,37.6,1.2,30.09,SE,135,0.4,1.6,21,0.00,,,0.00,WSDL version 420,2013-01-23 10:44:00,
2013-01-23 03:49:00,37.6,1.2,30.09,NNE,23,2.0,2.7,21,0.00,,,0.00,WSDL version 420,2013-01-23 10:49:00,
2013-01-23 03:54:00,37.7,1.2,30.09,NNE,23,2.2,2.9,21,0.00,,,0.00,WSDL version 420,2013-01-23 10:54:00,
2013-01-23 03:59:00,37.9,1.4,30.09,NNE,23,1.5,2.9,21,0.00,,,0.00,WSDL version 420,2013-01-23 10:59:00,
2013-01-23 04:04:00,38.2,1.7,30.09,North,0,0.0,2.2,21,0.00,,,0.00,WSDL version 420,2013-01-23 11:04:00,
2013-01-23 04:09:00,38.5,1.9,30.09,ENE,68,2.8,3.1,21,0.00,,,0.00,WSDL version 420,2013-01-23 11:09:00,
2013-01-23 04:14:00,38.8,2.2,30.09,NE,45,3.6,3.8,21,0.00,,,0.00,WSDL version 420,2013-01-23 11:14:00,
2013-01-23 04:19:00,39.0,2.3,30.09,ENE,60,4.0,5.4,21,0.00,,,0.00,WSDL version 420,2013-01-23 11:19:00,
2013-01-23 04:24:00,39.1,2.4,30.09,ENE,68,3.6,5.4,21,0.00,,,0.00,WSDL version 420,2013-01-23 11:24:00,
2013-01-23 04:29:00,39.2,2.5,30.09,ENE,68,3.6,4.3,21,0.00,,,0.00,WSDL version 420,2013-01-23 11:29:00,
2013-01-23 04:39:00,39.4,2.7,30.09,ENE,68,3.1,4.3,21,0.00,,,0.00,WSDL version 420,2013-01-23 11:39:00,
2013-01-23 04:44:00,39.3,2.6,30.06,ENE,68,2.2,4.0,21,0.00,,,0.00,WSDL version 420,2013-01-23 11:44:00,
2013-01-23 04:49:00,39.2,2.5,30.06,ENE,68,0.0,3.4,21,0.00,,,0.00,WSDL version 420,2013-01-23 11:49:00,
2013-01-23 04:54:00,39.0,2.4,30.06,ENE,68,2.6,4.5,21,0.00,,,0.00,WSDL version 420,2013-01-23 11:54:00,
2013-01-23 04:59:00,39.2,2.5,30.09,ENE,68,2.7,5.4,21,0.00,,,0.00,WSDL version 420,2013-01-23 11:59:00,
2013-01-23 05:04:00,39.4,2.7,30.09,ENE,68,4.6,6.3,21,0.00,,,0.00,WSDL version 420,2013-01-23 12:04:00,
2013-01-23 05:09:00,39.8,3.0,30.09,ENE,68,4.9,6.3,21,0.00,,,0.00,WSDL version 420,2013-01-23 12:09:00,
2013-01-23 05:14:00,39.8,3.0,30.06,ENE,68,4.9,5.8,21,0.00,,,0.00,WSDL version 420,2013-01-23 12:14:00,
2013-01-23 05:19:00,39.7,3.0,30.06,ENE,68,3.6,5.8,21,0.00,,,0.00,WSDL version 420,2013-01-23 12:19:00,
2013-01-23 05:24:00,39.7,3.0,30.06,ENE,75,4.3,5.4,21,0.00,,,0.00,WSDL version 420,2013-01-23 12:24:00,
2013-01-23 05:29:00,39.7,3.0,30.06,ENE,68,2.1,4.9,21,0.00,,,0.00,WSDL version 420,2013-01-23 12:29:00,
2013-01-23 05:34:00,39.5,2.8,30.06,ENE,68,3.6,4.3,21,0.00,,,0.00,WSDL version 420,2013-01-23 12:34:00,
2013-01-23 05:39:00,39.3,2.6,30.06,ENE,68,4.3,4.7,21,0.00,,,0.00,WSDL version 420,2013-01-23 12:39:00,
2013-01-23 05:44:00,39.2,2.5,30.06,ENE,60,5.4,5.4,21,0.00,,,0.00,WSDL version 420,2013-01-23 12:44:00,
2013-01-23 05:49:00,39.1,2.4,30.06,ENE,68,4.3,5.8,21,0.00,,,0.00,WSDL version 420,2013-01-23 12:49:00,
2013-01-23 05:54:00,39.2,2.5,30.06,North,0,0.0,5.8,21,0.00,,,0.00,WSDL version 420,2013-01-23 12:54:00,
2013-01-23 05:59:00,39.2,2.5,30.06,NE,56,4.0,5.4,21,0.00,,,0.00,WSDL version 420,2013-01-23 12:59:00,
2013-01-23 06:04:00,39.2,2.5,30.06,ENE,68,4.7,6.0,21,0.00,,,0.00,WSDL version 420,2013-01-23 13:04:00,
2013-01-23 06:09:00,39.3,2.6,30.06,NE,45,3.1,6.0,21,0.00,,,0.00,WSDL version 420,2013-01-23 13:09:00,
2013-01-23 06:14:00,39.5,2.8,30.09,ENE,68,3.4,5.4,21,0.00,,,0.00,WSDL version 420,2013-01-23 13:14:00,
2013-01-23 06:19:00,39.7,2.9,30.09,ESE,113,2.5,4.9,21,0.00,,,0.00,WSDL version 420,2013-01-23 13:19:00,
2013-01-23 06:24:00,39.0,2.4,30.09,East,84,2.3,3.4,21,0.00,,,0.00,WSDL version 420,2013-01-23 13:24:00,
2013-01-23 06:29:00,38.8,2.2,30.09,North,0,0.0,3.4,21,0.00,,,0.00,WSDL version 420,2013-01-23 13:29:00,
2013-01-23 06:34:00,38.5,1.9,30.09,East,90,2.3,2.9,21,0.00,,,0.00,WSDL version 420,2013-01-23 13:34:00,
2013-01-23 06:39:00,37.7,1.3,30.09,ENE,68,2.6,2.9,21,0.00,,,0.00,WSDL version 420,2013-01-23 13:39:00,
2013-01-23 06:44:00,37.5,1.1,30.09,SSE,158,2.2,2.9,21,0.00,,,0.00,WSDL version 420,2013-01-23 13:44:00,
2013-01-23 06:49:00,37.4,1.2,30.09,ENE,75,1.0,2.9,21,0.00,,,0.00,WSDL version 420,2013-01-23 13:49:00,
2013-01-23 06:54:00,38.1,1.6,30.09,ENE,68,2.5,3.1,21,0.00,,,0.00,WSDL version 420,2013-01-23 13:54:00,
2013-01-23 06:59:00,38.2,1.7,30.12,South,180,1.3,3.1,21,0.00,,,0.00,WSDL version 420,2013-01-23 13:59:00,
2013-01-23 07:04:00,37.4,1.4,30.12,SSE,158,2.2,2.5,22,0.00,,,0.00,WSDL version 420,2013-01-23 14:04:00,
2013-01-23 07:09:00,36.8,1.5,30.12,SSE,158,0.3,2.5,22,0.00,,,0.00,WSDL version 420,2013-01-23 14:09:00,
2013-01-23 07:14:00,36.7,1.4,30.12,SSE,158,1.1,2.0,22,0.00,,,0.00,WSDL version 420,2013-01-23 14:14:00,
2013-01-23 07:19:00,36.9,1.5,30.12,SE,135,2.3,2.7,22,0.00,,,0.00,WSDL version 420,2013-01-23 14:19:00,
2013-01-23 07:24:00,37.0,1.7,30.12,SE,135,2.2,2.7,22,0.00,,,0.00,WSDL version 420,2013-01-23 14:24:00,
2013-01-23 07:29:00,37.0,1.6,30.12,SE,135,1.1,2.7,22,0.00,,,0.00,WSDL version 420,2013-01-23 14:29:00,
2013-01-23 07:34:00,36.5,1.2,30.12,SE,135,0.0,2.0,22,0.00,,,0.00,WSDL version 420,2013-01-23 14:34:00,
2013-01-23 07:39:00,36.0,0.8,30.12,SE,135,0.0,1.3,22,0.00,,,0.00,WSDL version 420,2013-01-23 14:39:00,
2013-01-23 07:44:00,36.2,1.0,30.12,ENE,68,2.7,3.6,22,0.00,,,0.00,WSDL version 420,2013-01-23 14:44:00,
2013-01-23 07:49:00,37.0,1.5,30.12,East,79,2.9,3.6,21,0.00,,,0.00,WSDL version 420,2013-01-23 14:49:00,
2013-01-23 07:54:00,37.8,1.3,30.12,ENE,68,2.2,4.0,21,0.00,,,0.00,WSDL version 420,2013-01-23 14:54:00,
2013-01-23 08:03:00,38.7,2.1,30.12,ENE,68,2.5,2.5,21,0.00,,,0.00,WSDL version 420,2013-01-23 15:03:00,
2013-01-23 08:08:00,38.8,2.2,30.12,ENE,68,1.1,2.2,21,0.00,,,0.00,WSDL version 420,2013-01-23 15:08:00,
2013-01-23 08:13:00,38.6,2.0,30.12,North,-999,-999.0,-999.0,21,0.00,,,0.00,WSDL version 420,2013-01-23 15:13:00,
2013-01-23 08:18:00,39.0,2.4,30.12,East,90,2.8,3.4,21,0.00,,,0.00,WSDL version 420,2013-01-23 15:18:00,
2013-01-23 08:23:00,39.5,2.8,30.12,North,0,0.0,3.4,21,0.00,,,0.00,WSDL version 420,2013-01-23 15:23:00,
2013-01-23 08:28:00,39.7,3.0,30.12,SE,135,1.1,2.5,21,0.00,,,0.00,WSDL version 420,2013-01-23 15:28:00,
2013-01-23 08:33:00,39.7,3.0,30.12,North,-999,-999.0,-999.0,21,0.00,,,0.00,WSDL version 420,2013-01-23 15:33:00,
2013-01-23 08:38:00,39.8,3.1,30.12,SE,135,0.9,2.5,21,0.00,,,0.00,WSDL version 420,2013-01-23 15:38:00,
2013-01-23 08:43:00,40.0,3.2,30.12,ENE,68,1.3,2.5,21,0.00,,,0.00,WSDL version 420,2013-01-23 15:43:00,
2013-01-23 08:48:00,40.3,3.5,30.12,North,0,0.0,2.5,21,0.00,,,0.00,WSDL version 420,2013-01-23 15:48:00,
2013-01-23 08:53:00,40.6,3.7,30.12,North,-999,-999.0,-999.0,21,0.00,,,0.00,WSDL version 420,2013-01-23 15:53:00,
2013-01-23 08:58:00,41.2,4.2,30.12,North,-999,-999.0,-999.0,21,0.00,,,0.00,WSDL version 420,2013-01-23 15:58:00,
2013-01-23 09:03:00,42.0,4.9,30.12,ENE,68,1.7,2.0,21,0.00,,,0.00,WSDL version 420,2013-01-23 16:03:00,
2013-01-23 09:08:00,43.1,4.9,30.12,North,-999,-999.0,-999.0,20,0.00,,,0.00,WSDL version 420,2013-01-23 16:08:00,
2013-01-23 09:13:00,44.3,5.7,30.12,North,-999,-999.0,-999.0,20,0.00,,,0.00,WSDL version 420,2013-01-23 16:13:00,
2013-01-23 09:18:00,45.7,8.0,30.12,ENE,68,1.5,2.2,22,0.00,,,0.00,WSDL version 420,2013-01-23 16:18:00,
2013-01-23 09:23:00,47.3,10.3,30.12,North,-999,-999.0,-999.0,22,0.00,,,0.00,WSDL version 420,2013-01-23 16:23:00,
2013-01-23 09:28:00,49.0,9.6,30.12,North,0,0.0,3.1,19,0.00,,,0.00,WSDL version 420,2013-01-23 16:28:00,
2013-01-23 09:33:00,50.3,9.6,30.12,North,-999,-999.0,-999.0,19,0.00,,,0.00,WSDL version 420,2013-01-23 16:33:00,
2013-01-23 09:38:00,51.1,10.3,30.12,North,-999,-999.0,-999.0,19,0.00,,,0.00,WSDL version 420,2013-01-23 16:38:00,
2013-01-23 09:43:00,51.2,10.3,30.12,North,-999,-999.0,-999.0,19,0.00,,,0.00,WSDL version 420,2013-01-23 16:43:00,
2013-01-23 09:48:00,50.4,9.7,30.12,North,-999,-999.0,-999.0,19,0.00,,,0.00,WSDL version 420,2013-01-23 16:48:00,
2013-01-23 09:53:00,49.8,9.2,30.12,WSW,248,2.3,2.9,19,0.00,,,0.00,WSDL version 420,2013-01-23 16:53:00,
2013-01-23 10:07:00,48.8,8.3,30.15,North,0,0.0,3.6,19,0.00,,,0.00,WSDL version 420,2013-01-23 17:07:00,
2013-01-23 10:12:00,49.0,8.5,30.15,WSW,248,2.5,3.6,19,0.00,,,0.00,WSDL version 420,2013-01-23 17:12:00,
2013-01-23 10:17:00,49.2,8.7,30.15,North,-999,-999.0,-999.0,19,0.00,,,0.00,WSDL version 420,2013-01-23 17:17:00,
2013-01-23 10:22:00,49.5,9.0,30.15,North,-999,-999.0,-999.0,19,0.00,,,0.00,WSDL version 420,2013-01-23 17:22:00,
2013-01-23 10:27:00,49.7,9.1,30.15,NNW,338,0.0,0.0,19,0.00,,,0.00,WSDL version 420,2013-01-23 17:27:00,
2013-01-23 10:32:00,49.7,9.1,30.15,North,0,0.0,3.6,19,0.00,,,0.00,WSDL version 420,2013-01-23 17:32:00,
2013-01-23 10:37:00,49.8,9.2,30.15,North,-999,-999.0,-999.0,19,0.00,,,0.00,WSDL version 420,2013-01-23 17:37:00,
2013-01-23 10:42:00,50.5,9.8,30.15,North,0,0.0,1.1,19,0.00,,,0.00,WSDL version 420,2013-01-23 17:42:00,
2013-01-23 10:47:00,51.4,10.5,30.15,NNW,338,0.0,0.0,19,0.00,,,0.00,WSDL version 420,2013-01-23 17:47:00,
2013-01-23 10:52:00,51.9,9.7,30.15,NNW,338,0.0,1.1,18,0.00,,,0.00,WSDL version 420,2013-01-23 17:52:00,
2013-01-23 10:57:00,52.4,10.1,30.15,North,-999,-999.0,-999.0,18,0.00,,,0.00,WSDL version 420,2013-01-23 17:57:00,
2013-01-23 11:02:00,53.6,11.1,30.15,North,-999,-999.0,-999.0,18,0.00,,,0.00,WSDL version 420,2013-01-23 18:02:00,
2013-01-23 11:07:00,54.5,11.8,30.15,North,-999,-999.0,-999.0,18,0.00,,,0.00,WSDL version 420,2013-01-23 18:07:00,
2013-01-23 11:12:00,54.9,12.2,30.15,WSW,248,1.3,2.5,18,0.00,,,0.00,WSDL version 420,2013-01-23 18:12:00,
2013-01-23 11:17:00,55.1,12.4,30.15,SW,225,0.0,0.9,18,0.00,,,0.00,WSDL version 420,2013-01-23 18:17:00,
2013-01-23 11:22:00,55.5,11.4,30.15,SSE,158,0.6,1.6,17,0.00,,,0.00,WSDL version 420,2013-01-23 18:22:00,
2013-01-23 11:27:00,55.9,11.8,30.15,SSE,158,1.0,2.7,17,0.00,,,0.00,WSDL version 420,2013-01-23 18:27:00,
2013-01-23 11:32:00,56.5,12.2,30.15,SW,225,1.6,2.7,17,0.00,,,0.00,WSDL version 420,2013-01-23 18:32:00,
2013-01-23 11:37:00,57.0,12.6,30.15,WSW,248,2.2,3.8,17,0.00,,,0.00,WSDL version 420,2013-01-23 18:37:00,
2013-01-23 11:42:00,57.4,12.9,30.15,WSW,248,4.0,4.0,17,0.00,,,0.00,WSDL version 420,2013-01-23 18:42:00,
2013-01-23 11:47:00,57.6,13.1,30.15,SW,225,3.8,3.8,17,0.00,,,0.00,WSDL version 420,2013-01-23 18:47:00,
2013-01-23 11:52:00,58.0,13.5,30.15,SW,225,2.6,3.8,17,0.00,,,0.00,WSDL version 420,2013-01-23 18:52:00,
2013-01-23 11:57:00,58.6,14.0,30.15,SW,225,2.7,3.4,17,0.00,,,0.00,WSDL version 420,2013-01-23 18:57:00,
2013-01-23 12:02:00,59.6,14.7,30.12,SSE,158,2.9,3.1,17,0.00,,,0.00,WSDL version 420,2013-01-23 19:02:00,
2013-01-23 12:07:00,60.1,15.1,30.12,SSW,203,3.1,4.0,17,0.00,,,0.00,WSDL version 420,2013-01-23 19:07:00,
2013-01-23 12:11:00,60.1,15.1,30.12,North,0,0.0,4.3,17,0.00,,,0.00,WSDL version 420,2013-01-23 19:11:00,
2013-01-23 12:16:00,60.1,15.1,30.12,North,-999,-999.0,-999.0,17,0.00,,,0.00,WSDL version 420,2013-01-23 19:16:00,
2013-01-23 12:22:00,60.1,15.1,30.12,South,180,2.2,3.6,17,0.00,,,0.00,WSDL version 420,2013-01-23 19:22:00,
2013-01-23 12:27:00,60.2,15.2,30.12,SW,225,4.4,4.9,17,0.00,,,0.00,WSDL version 420,2013-01-23 19:27:00,
2013-01-23 12:32:00,60.1,15.1,30.12,SSE,158,2.3,4.9,17,0.00,,,0.00,WSDL version 420,2013-01-23 19:32:00,
2013-01-23 12:36:00,60.1,15.1,30.12,North,-999,-999.0,-999.0,17,0.00,,,0.00,WSDL version 420,2013-01-23 19:36:00,
2013-01-23 12:41:00,60.2,15.3,30.12,SSE,158,4.7,4.7,17,0.00,,,0.00,WSDL version 420,2013-01-23 19:41:00,
2013-01-23 12:46:00,60.3,15.3,30.12,South,191,3.0,4.5,17,0.00,,,0.00,WSDL version 420,2013-01-23 19:46:00,
2013-01-23 12:51:00,60.5,15.5,30.12,South,169,5.4,5.4,17,0.00,,,0.00,WSDL version 420,2013-01-23 19:51:00,
2013-01-23 12:56:00,61.1,14.5,30.12,North,-999,-999.0,-999.0,16,0.00,,,0.00,WSDL version 420,2013-01-23 19:56:00,
2013-01-23 13:01:00,61.5,14.9,30.12,North,-999,-999.0,-999.0,16,0.00,,,0.00,WSDL version 420,2013-01-23 20:01:00,
2013-01-23 13:07:00,61.7,15.1,30.12,SW,225,4.3,4.3,16,0.00,,,0.00,WSDL version 420,2013-01-23 20:07:00,
2013-01-23 13:11:00,61.7,15.1,30.12,SSW,195,4.1,4.9,16,0.00,,,0.00,WSDL version 420,2013-01-23 20:11:00,
2013-01-23 13:16:00,61.6,14.9,30.12,North,-999,-999.0,-999.0,16,0.00,,,0.00,WSDL version 420,2013-01-23 20:16:00,
2013-01-23 13:21:00,61.7,15.1,30.12,WSW,248,5.6,6.5,16,0.00,,,0.00,WSDL version 420,2013-01-23 20:21:00,
2013-01-23 13:26:00,62.1,15.4,30.12,North,-999,-999.0,-999.0,16,0.00,,,0.00,WSDL version 420,2013-01-23 20:26:00,
2013-01-23 13:31:00,62.6,15.8,30.09,South,180,3.8,4.7,16,0.00,,,0.00,WSDL version 420,2013-01-23 20:31:00,
2013-01-23 13:36:00,63.2,16.3,30.09,South,191,4.8,5.4,16,0.00,,,0.00,WSDL version 420,2013-01-23 20:36:00,
2013-01-23 13:41:00,63.0,16.1,30.09,North,-999,-999.0,-999.0,16,0.00,,,0.00,WSDL version 420,2013-01-23 20:41:00,
2013-01-23 13:46:00,62.6,15.8,30.09,North,-999,-999.0,-999.0,16,0.00,,,0.00,WSDL version 420,2013-01-23 20:46:00,
2013-01-23 13:51:00,62.5,15.7,30.09,South,173,5.5,8.1,16,0.00,,,0.00,WSDL version 420,2013-01-23 20:51:00,
2013-01-23 13:56:00,62.4,15.7,30.09,SSE,158,6.7,8.1,16,0.00,,,0.00,WSDL version 420,2013-01-23 20:56:00,
2013-01-23 14:01:00,62.4,15.6,30.09,South,180,5.4,8.5,16,0.00,,,0.00,WSDL version 420,2013-01-23 21:01:00,
2013-01-23 14:06:00,62.7,15.9,30.09,North,-999,-999.0,-999.0,16,0.00,,,0.00,WSDL version 420,2013-01-23 21:06:00,
2013-01-23 14:11:00,63.3,16.4,30.09,SSE,165,5.9,7.6,16,0.00,,,0.00,WSDL version 420,2013-01-23 21:11:00,
2013-01-23 14:16:00,63.6,16.6,30.09,SSE,158,6.5,7.6,16,0.00,,,0.00,WSDL version 420,2013-01-23 21:16:00,
2013-01-23 14:21:00,63.2,16.3,30.09,SSE,158,8.5,10.5,16,0.00,,,0.00,WSDL version 420,2013-01-23 21:21:00,
2013-01-23 14:26:00,62.6,15.8,30.09,South,169,7.4,10.5,16,0.00,,,0.00,WSDL version 420,2013-01-23 21:26:00,
2013-01-23 14:31:00,62.4,15.7,30.09,North,-999,-999.0,-999.0,16,0.00,,,0.00,WSDL version 420,2013-01-23 21:31:00,
2013-01-23 14:36:00,62.4,15.7,30.09,North,-999,-999.0,-999.0,16,0.00,,,0.00,WSDL version 420,2013-01-23 21:36:00,
2013-01-23 14:41:00,62.4,15.7,30.09,SSE,158,4.9,9.2,16,0.00,,,0.00,WSDL version 420,2013-01-23 21:41:00,
2013-01-23 14:46:00,62.4,15.7,30.09,North,-999,-999.0,-999.0,16,0.00,,,0.00,WSDL version 420,2013-01-23 21:46:00,
2013-01-23 14:51:00,62.2,15.5,30.09,North,-999,-999.0,-999.0,16,0.00,,,0.00,WSDL version 420,2013-01-23 21:51:00,
2013-01-23 14:56:00,62.0,15.3,30.09,SSE,158,9.2,10.1,16,0.00,,,0.00,WSDL version 420,2013-01-23 21:56:00,
2013-01-23 15:01:00,61.9,15.2,30.09,North,-999,-999.0,-999.0,16,0.00,,,0.00,WSDL version 420,2013-01-23 22:01:00,
2013-01-23 15:06:00,61.7,15.1,30.09,North,-999,-999.0,-999.0,16,0.00,,,0.00,WSDL version 420,2013-01-23 22:06:00,
2013-01-23 15:11:00,61.7,15.1,30.09,North,-999,-999.0,-999.0,16,0.00,,,0.00,WSDL version 420,2013-01-23 22:11:00,
2013-01-23 15:16:00,62.0,15.3,30.09,SSE,158,6.9,10.5,16,0.00,,,0.00,WSDL version 420,2013-01-23 22:16:00,
2013-01-23 15:21:00,62.4,15.6,30.09,South,180,6.5,10.5,16,0.00,,,0.00,WSDL version 420,2013-01-23 22:21:00,
2013-01-23 15:26:00,62.4,15.7,30.09,SE,135,8.1,9.8,16,0.00,,,0.00,WSDL version 420,2013-01-23 22:26:00,
2013-01-23 15:31:00,62.2,15.5,30.09,SSW,203,6.5,9.8,16,0.00,,,0.00,WSDL version 420,2013-01-23 22:31:00,
2013-01-23 15:36:00,62.5,15.7,30.09,SSE,158,6.8,7.4,16,0.00,,,0.00,WSDL version 420,2013-01-23 22:36:00,
2013-01-23 15:41:00,62.9,16.1,30.09,SE,135,8.9,8.9,16,0.00,,,0.00,WSDL version 420,2013-01-23 22:41:00,
2013-01-23 15:46:00,63.1,16.2,30.09,North,-999,-999.0,-999.0,16,0.00,,,0.00,WSDL version 420,2013-01-23 22:46:00,
2013-01-23 15:51:00,63.3,16.4,30.09,South,180,10.3,11.4,16,0.00,,,0.00,WSDL version 420,2013-01-23 22:51:00,
2013-01-23 15:56:00,63.3,16.3,30.09,SSE,158,7.2,11.4,16,0.00,,,0.00,WSDL version 420,2013-01-23 22:56:00,
2013-01-23 16:01:00,63.0,16.1,30.06,South,180,8.1,11.9,16,0.00,,,0.00,WSDL version 420,2013-01-23 23:01:00,
2013-01-23 16:06:00,62.9,16.0,30.06,North,-999,-999.0,-999.0,16,0.00,,,0.00,WSDL version 420,2013-01-23 23:06:00,
2013-01-23 16:11:00,62.6,15.8,30.06,North,0,0.0,10.5,16,0.00,,,0.00,WSDL version 420,2013-01-23 23:11:00,
2013-01-23 16:16:00,62.3,15.6,30.09,SSW,203,6.2,8.5,16,0.00,,,0.00,WSDL version 420,2013-01-23 23:16:00,
2013-01-23 16:21:00,62.0,15.3,30.09,South,188,6.3,7.6,16,0.00,,,0.00,WSDL version 420,2013-01-23 23:21:00,
2013-01-23 16:26:00,61.6,15.0,30.09,SSE,158,6.6,8.5,16,0.00,,,0.00,WSDL version 420,2013-01-23 23:26:00,
2013-01-23 16:31:00,61.4,14.8,30.06,SSE,165,5.7,9.8,16,0.00,,,0.00,WSDL version 420,2013-01-23 23:31:00,
2013-01-23 16:36:00,61.2,14.7,30.06,South,180,5.7,9.8,16,0.00,,,0.00,WSDL version 420,2013-01-23 23:36:00,
2013-01-23 16:41:00,61.2,14.7,30.06,South,169,6.0,8.5,16,0.00,,,0.00,WSDL version 420,2013-01-23 23:41:00,
2013-01-23 16:46:00,60.8,14.6,30.06,North,-999,-999.0,-999.0,17,0.00,,,0.00,WSDL version 420,2013-01-23 23:46:00,
2013-01-23 16:51:00,60.7,14.8,30.06,North,-999,-999.0,-999.0,17,0.00,,,0.00,WSDL version 420,2013-01-23 23:51:00,
2013-01-23 16:56:00,60.5,15.5,30.06,SSE,158,6.5,8.1,17,0.00,,,0.00,WSDL version 420,2013-01-23 23:56:00,
2013-01-23 17:01:00,60.3,15.3,30.09,SSW,203,5.8,8.7,17,0.00,,,0.00,WSDL version 420,2013-01-24 00:01:00,
2013-01-23 17:06:00,60.1,15.1,30.09,North,-999,-999.0,-999.0,17,0.00,,,0.00,WSDL version 420,2013-01-24 00:06:00,
2013-01-23 17:11:00,59.9,15.0,30.09,SSE,158,7.2,8.7,17,0.00,,,0.00,WSDL version 420,2013-01-24 00:11:00,
2013-01-23 17:16:00,59.6,14.7,30.09,SSE,158,5.6,7.6,17,0.00,,,0.00,WSDL version 420,2013-01-24 00:16:00,
2013-01-23 17:21:00,59.3,14.5,30.09,North,-999,-999.0,-999.0,17,0.00,,,0.00,WSDL version 420,2013-01-24 00:21:00,
2013-01-23 17:26:00,59.0,14.2,30.09,North,-999,-999.0,-999.0,17,0.00,,,0.00,WSDL version 420,2013-01-24 00:26:00,
2013-01-23 17:31:00,58.6,13.9,30.09,North,-999,-999.0,-999.0,17,0.00,,,0.00,WSDL version 420,2013-01-24 00:31:00,
2013-01-23 17:36:00,58.1,13.6,30.09,SE,135,3.8,6.0,17,0.00,,,0.00,WSDL version 420,2013-01-24 00:36:00,
2013-01-23 17:41:00,57.7,13.2,30.09,North,-999,-999.0,-999.0,17,0.00,,,0.00,WSDL version 420,2013-01-24 00:41:00,
2013-01-23 17:46:00,57.1,12.7,30.09,SE,135,3.4,3.6,17,0.00,,,0.00,WSDL version 420,2013-01-24 00:46:00,
2013-01-23 17:51:00,56.3,12.1,30.09,ESE,113,2.7,3.4,17,0.00,,,0.00,WSDL version 420,2013-01-24 00:51:00,
2013-01-23 17:56:00,55.3,12.1,30.09,SE,135,2.9,4.0,18,0.00,,,0.00,WSDL version 420,2013-01-24 00:56:00,
2013-01-23 18:01:00,54.4,11.8,30.09,SE,135,2.7,4.0,18,0.00,,,0.00,WSDL version 420,2013-01-24 01:01:00,
2013-01-23 18:06:00,53.9,11.3,30.09,North,-999,-999.0,-999.0,18,0.00,,,0.00,WSDL version 420,2013-01-24 01:06:00,
2013-01-23 18:11:00,53.3,10.9,30.09,North,-999,-999.0,-999.0,18,0.00,,,0.00,WSDL version 420,2013-01-24 01:11:00,
2013-01-23 18:16:00,53.2,10.8,30.09,East,90,3.2,3.8,18,0.00,,,0.00,WSDL version 420,2013-01-24 01:16:00,
2013-01-23 18:21:00,53.2,10.8,30.09,North,-999,-999.0,-999.0,18,0.00,,,0.00,WSDL version 420,2013-01-24 01:21:00,
2013-01-23 18:26:00,53.1,10.7,30.09,East,90,3.8,3.8,18,0.00,,,0.00,WSDL version 420,2013-01-24 01:26:00,
2013-01-23 18:31:00,52.7,10.4,30.09,ESE,113,2.6,3.6,18,0.00,,,0.00,WSDL version 420,2013-01-24 01:31:00,
2013-01-23 18:36:00,51.9,9.8,30.09,East,90,3.4,3.8,18,0.00,,,0.00,WSDL version 420,2013-01-24 01:36:00,
2013-01-23 18:41:00,51.8,9.8,30.09,East,90,2.5,3.8,19,0.00,,,0.00,WSDL version 420,2013-01-24 01:41:00,
2013-01-23 18:46:00,51.6,11.1,30.09,North,-999,-999.0,-999.0,20,0.00,,,0.00,WSDL version 420,2013-01-24 01:46:00,
2013-01-23 18:51:00,51.6,13.0,30.09,East,90,2.2,3.1,21,0.00,,,0.00,WSDL version 420,2013-01-24 01:51:00,
2013-01-23 18:56:00,51.3,10.8,30.09,SSW,203,1.6,2.5,19,0.00,,,0.00,WSDL version 420,2013-01-24 01:56:00,
2013-01-23 19:01:00,51.1,11.8,30.09,North,-999,-999.0,-999.0,21,0.00,,,0.00,WSDL version 420,2013-01-24 02:01:00,
2013-01-23 19:06:00,51.1,12.5,30.09,North,-999,-999.0,-999.0,21,0.00,,,0.00,WSDL version 420,2013-01-24 02:06:00,
2013-01-23 19:11:00,51.1,12.6,30.09,ENE,68,2.7,2.7,21,0.00,,,0.00,WSDL version 420,2013-01-24 02:11:00,
2013-01-23 19:16:00,51.3,12.7,30.09,North,-999,-999.0,-999.0,21,0.00,,,0.00,WSDL version 420,2013-01-24 02:16:00,
2013-01-23 19:21:00,51.4,12.8,30.09,North,-999,-999.0,-999.0,21,0.00,,,0.00,WSDL version 420,2013-01-24 02:21:00,
2013-01-23 19:26:00,51.4,12.8,30.09,ENE,68,1.6,2.5,21,0.00,,,0.00,WSDL version 420,2013-01-24 02:26:00,
2013-01-23 19:31:00,51.4,12.8,30.12,North,-999,-999.0,-999.0,21,0.00,,,0.00,WSDL version 420,2013-01-24 02:31:00,
2013-01-23 19:36:00,51.4,12.8,30.12,ENE,68,2.2,2.5,21,0.00,,,0.00,WSDL version 420,2013-01-24 02:36:00,
2013-01-23 19:41:00,51.4,12.8,30.12,North,-999,-999.0,-999.0,21,0.00,,,0.00,WSDL version 420,2013-01-24 02:41:00,
2013-01-23 19:46:00,51.4,12.8,30.09,ENE,68,1.3,2.2,21,0.00,,,0.00,WSDL version 420,2013-01-24 02:46:00,
2013-01-23 19:51:00,51.4,12.8,30.09,ENE,68,2.2,2.5,21,0.00,,,0.00,WSDL version 420,2013-01-24 02:51:00,
2013-01-23 19:56:00,51.5,12.8,30.09,North,0,0.0,2.5,21,0.00,,,0.00,WSDL version 420,2013-01-24 02:56:00,
2013-01-23 20:01:00,51.7,13.0,30.09,ENE,68,3.1,3.1,21,0.00,,,0.00,WSDL version 420,2013-01-24 03:01:00,
2013-01-23 20:06:00,52.0,13.2,30.09,ENE,68,2.6,3.1,21,0.00,,,0.00,WSDL version 420,2013-01-24 03:06:00,
2013-01-23 20:11:00,52.0,13.3,30.09,North,-999,-999.0,-999.0,21,0.00,,,0.00,WSDL version 420,2013-01-24 03:11:00,
2013-01-23 20:16:00,52.2,13.4,30.09,East,90,2.5,2.9,21,0.00,,,0.00,WSDL version 420,2013-01-24 03:16:00,
2013-01-23 20:21:00,52.2,13.4,30.09,North,-999,-999.0,-999.0,21,0.00,,,0.00,WSDL version 420,2013-01-24 03:21:00,
2013-01-23 20:26:00,52.2,13.4,30.09,North,-999,-999.0,-999.0,21,0.00,,,0.00,WSDL version 420,2013-01-24 03:26:00,
2013-01-23 20:31:00,51.9,13.2,30.09,East,90,2.2,2.5,21,0.00,,,0.00,WSDL version 420,2013-01-24 03:31:00,
2013-01-23 20:37:00,51.5,12.9,30.09,East,90,2.2,2.5,21,0.00,,,0.00,WSDL version 420,2013-01-24 03:37:00,
2013-01-23 20:46:00,51.7,13.0,30.09,East,90,2.5,3.8,21,0.00,,,0.00,WSDL version 420,2013-01-24 03:46:00,
2013-01-23 20:51:00,51.2,12.6,30.09,East,90,2.0,2.7,21,0.00,,,0.00,WSDL version 420,2013-01-24 03:51:00,
2013-01-23 20:56:00,50.9,12.4,30.09,East,90,3.1,4.3,21,0.00,,,0.00,WSDL version 420,2013-01-24 03:56:00,
2013-01-23 21:01:00,51.4,12.8,30.09,North,-999,-999.0,-999.0,21,0.00,,,0.00,WSDL version 420,2013-01-24 04:01:00,
2013-01-23 21:06:00,51.8,13.1,30.09,North,-999,-999.0,-999.0,21,0.00,,,0.00,WSDL version 420,2013-01-24 04:06:00,
2013-01-23 21:11:00,51.8,13.1,30.09,North,-999,-999.0,-999.0,21,0.00,,,0.00,WSDL version 420,2013-01-24 04:11:00,
2013-01-23 21:16:00,51.4,12.7,30.09,North,-999,-999.0,-999.0,21,0.00,,,0.00,WSDL version 420,2013-01-24 04:16:00,
2013-01-23 21:21:00,51.2,12.6,30.09,East,90,2.0,3.1,21,0.00,,,0.00,WSDL version 420,2013-01-24 04:21:00,
2013-01-23 21:26:00,50.9,12.4,30.09,North,-999,-999.0,-999.0,21,0.00,,,0.00,WSDL version 420,2013-01-24 04:26:00,
2013-01-23 21:31:00,51.0,12.4,30.09,East,90,3.8,3.8,21,0.00,,,0.00,WSDL version 420,2013-01-24 04:31:00,
2013-01-23 21:36:00,50.8,12.3,30.09,North,0,0.0,3.6,21,0.00,,,0.00,WSDL version 420,2013-01-24 04:36:00,
2013-01-23 21:41:00,50.7,12.2,30.09,East,90,2.6,3.1,21,0.00,,,0.00,WSDL version 420,2013-01-24 04:41:00,
2013-01-23 21:46:00,50.9,12.4,30.09,North,-999,-999.0,-999.0,21,0.00,,,0.00,WSDL version 420,2013-01-24 04:46:00,
2013-01-23 21:51:00,51.0,12.4,30.09,East,90,2.0,2.5,21,0.00,,,0.00,WSDL version 420,2013-01-24 04:51:00,
2013-01-23 21:56:00,51.0,12.4,30.09,North,-999,-999.0,-999.0,21,0.00,,,0.00,WSDL version 420,2013-01-24 04:56:00,
2013-01-23 22:03:00,50.7,12.2,30.12,East,90,2.9,3.1,21,0.00,,,0.00,WSDL version 420,2013-01-24 05:03:00,
2013-01-23 22:08:00,50.9,12.4,30.12,North,-999,-999.0,-999.0,21,0.00,,,0.00,WSDL version 420,2013-01-24 05:08:00,
2013-01-23 22:13:00,51.1,12.5,30.09,East,90,2.2,2.5,21,0.00,,,0.00,WSDL version 420,2013-01-24 05:13:00,
2013-01-23 22:18:00,51.2,12.6,30.09,East,90,2.6,2.9,21,0.00,,,0.00,WSDL version 420,2013-01-24 05:18:00,
2013-01-23 22:23:00,51.1,12.5,30.09,North,-999,-999.0,-999.0,21,0.00,,,0.00,WSDL version 420,2013-01-24 05:23:00,
2013-01-23 22:28:00,51.2,12.6,30.09,East,90,2.5,3.4,21,0.00,,,0.00,WSDL version 420,2013-01-24 05:28:00,
2013-01-23 22:33:00,51.4,12.8,30.09,North,-999,-999.0,-999.0,21,0.00,,,0.00,WSDL version 420,2013-01-24 05:33:00,
2013-01-23 22:38:00,51.7,13.0,30.09,ENE,68,2.0,3.6,21,0.00,,,0.00,WSDL version 420,2013-01-24 05:38:00,
2013-01-23 22:43:00,51.9,13.2,30.09,North,-999,-999.0,-999.0,21,0.00,,,0.00,WSDL version 420,2013-01-24 05:43:00,
2013-01-23 22:48:00,52.0,13.3,30.09,ENE,68,2.2,2.7,21,0.00,,,0.00,WSDL version 420,2013-01-24 05:48:00,
2013-01-23 22:53:00,52.0,13.2,30.09,North,-999,-999.0,-999.0,21,0.00,,,0.00,WSDL version 420,2013-01-24 05:53:00,
2013-01-23 22:58:00,51.8,13.1,30.09,North,-999,-999.0,-999.0,21,0.00,,,0.00,WSDL version 420,2013-01-24 05:58:00,
2013-01-23 23:03:00,51.8,13.1,30.09,East,90,2.9,3.8,21,0.00,,,0.00,WSDL version 420,2013-01-24 06:03:00,
2013-01-23 23:08:00,51.9,13.2,30.09,North,-999,-999.0,-999.0,21,0.00,,,0.00,WSDL version 420,2013-01-24 06:08:00,
2013-01-23 23:13:00,51.6,12.9,30.09,East,90,2.8,2.8,21,0.00,,,0.00,WSDL version 420,2013-01-24 06:13:00,
2013-01-23 23:18:00,51.4,12.8,30.09,East,90,2.5,2.7,21,0.00,,,0.00,WSDL version 420,2013-01-24 06:18:00,
2013-01-23 23:23:00,51.4,12.8,30.09,North,-999,-999.0,-999.0,21,0.00,,,0.00,WSDL version 420,2013-01-24 06:23:00,
2013-01-23 23:28:00,51.3,12.7,30.09,ENE,68,2.5,3.1,21,0.00,,,0.00,WSDL version 420,2013-01-24 06:28:00,
2013-01-23 23:33:00,51.3,12.7,30.09,North,-999,-999.0,-999.0,21,0.00,,,0.00,WSDL version 420,2013-01-24 06:33:00,
2013-01-23 23:38:00,51.3,12.7,30.09,ENE,68,2.9,2.9,21,0.00,,,0.00,WSDL version 420,2013-01-24 06:38:00,
2013-01-23 23:43:00,51.3,12.7,30.09,ENE,68,2.1,2.9,21,0.00,,,0.00,WSDL version 420,2013-01-24 06:43:00,
2013-01-23 23:48:00,51.3,12.7,30.09,North,-999,-999.0,-999.0,21,0.00,,,0.00,WSDL version 420,2013-01-24 06:48:00,
2013-01-23 23:53:00,51.3,12.7,30.09,North,-999,-999.0,-999.0,21,0.00,,,0.00,WSDL version 420,2013-01-24 06:53:00,
2013-01-23 23:58:00,51.2,12.6,30.09,ENE,68,1.8,2.9,21,0.00,,,0.00,WSDL version 420,2013-01-24 06:58:00,